Time;durP1;ratioP1;P1;durP2;ratioP2;P2;SDS_P1;SDS_P2;PMS_P1;PMS_P2;Temp;Humidity;BMP_temperature;BMP_pressure;BME280_temperature;BME280_humidity;BME280_pressure;Samples;Min_cycle;Max_cycle;Signal;HPM_P1;HPM_P2
2021/11/14 00:01:25;;;;;;;8.63;5.70;;;11.00;85.90;;;;;;5013749;28;20066;-84
2021/11/14 00:03:52;;;;;;;7.10;6.00;;;11.00;85.90;;;;;;5012693;28;20104;-84
2021/11/14 00:06:20;;;;;;;8.98;6.22;;;11.00;85.90;;;;;;5012978;28;20050;-84
2021/11/14 00:08:49;;;;;;;8.63;6.15;;;11.00;85.90;;;;;;5013442;28;20507;-84
2021/11/14 00:11:17;;;;;;;7.97;6.15;;;11.00;85.90;;;;;;5013391;28;20099;-84
2021/11/14 00:13:45;;;;;;;10.90;6.38;;;11.00;85.90;;;;;;5013203;28;20410;-84
2021/11/14 00:16:14;;;;;;;8.30;6.80;;;11.00;85.90;;;;;;5012184;28;20510;-84
2021/11/14 00:18:42;;;;;;;9.02;6.47;;;11.00;85.90;;;;;;5012846;28;20053;-84
2021/11/14 00:21:12;;;;;;;9.05;6.90;;;11.00;85.90;;;;;;5012917;28;20049;-84
2021/11/14 00:23:39;;;;;;;10.77;7.22;;;11.00;85.90;;;;;;5013124;28;20488;-83
2021/11/14 00:26:06;;;;;;;9.10;6.85;;;11.00;86.00;;;;;;5013174;28;20050;-84
2021/11/14 00:28:34;;;;;;;9.15;6.82;;;11.00;86.00;;;;;;5012815;28;20042;-84
2021/11/14 00:31:01;;;;;;;8.88;7.15;;;11.00;86.00;;;;;;4997728;28;20083;-84
2021/11/14 00:33:28;;;;;;;10.20;6.93;;;11.00;86.00;;;;;;5012448;28;20141;-84
2021/11/14 00:35:55;;;;;;;9.20;6.70;;;10.90;86.00;;;;;;5012901;28;20144;-84
2021/11/14 00:38:24;;;;;;;10.40;7.57;;;11.00;86.00;;;;;;5013054;28;20061;-84
2021/11/14 00:40:52;;;;;;;9.52;6.93;;;11.00;86.00;;;;;;5013151;28;20049;-83
2021/11/14 00:43:19;;;;;;;8.70;6.97;;;10.90;86.00;;;;;;5012910;28;20049;-84
2021/11/14 00:45:47;;;;;;;10.63;7.00;;;11.00;86.00;;;;;;5012950;28;20072;-83
2021/11/14 00:48:17;;;;;;;13.00;7.78;;;11.00;86.00;;;;;;5010424;28;20513;-84
2021/11/14 00:50:45;;;;;;;10.02;7.22;;;11.00;86.00;;;;;;5012977;28;20042;-83
2021/11/14 00:53:14;;;;;;;8.52;6.55;;;10.90;86.00;;;;;;5012812;28;20061;-84
2021/11/14 00:55:42;;;;;;;8.70;6.80;;;10.90;86.00;;;;;;5012709;28;20042;-84
2021/11/14 00:58:09;;;;;;;9.50;7.13;;;10.90;86.00;;;;;;5012717;28;20049;-84
2021/11/14 01:00:38;;;;;;;10.93;7.90;;;10.90;86.00;;;;;;5010861;28;20045;-84
2021/11/14 01:03:07;;;;;;;8.98;7.00;;;10.90;86.10;;;;;;5012722;28;20057;-84
2021/11/14 01:05:35;;;;;;;11.70;7.32;;;10.90;86.10;;;;;;5012503;28;20065;-84
2021/11/14 01:08:04;;;;;;;12.80;8.20;;;11.00;86.10;;;;;;5012262;28;20522;-84
2021/11/14 01:10:36;;;;;;;8.60;7.10;;;10.90;86.10;;;;;;5012558;28;20042;-84
2021/11/14 01:13:03;;;;;;;11.27;7.80;;;10.90;86.10;;;;;;4996914;28;20053;-84
2021/11/14 01:15:32;;;;;;;10.65;7.05;;;10.90;86.10;;;;;;5007694;28;20041;-83
2021/11/14 01:17:59;;;;;;;11.63;7.50;;;10.90;86.10;;;;;;5012553;28;20111;-84
2021/11/14 01:20:35;;;;;;;9.63;6.97;;;10.90;86.10;;;;;;5012192;28;20103;-84
2021/11/14 01:23:05;;;;;;;9.38;7.15;;;10.90;86.10;;;;;;5012281;28;20107;-85
2021/11/14 01:25:32;;;;;;;10.32;7.53;;;10.90;86.10;;;;;;5012235;28;20052;-85
2021/11/14 01:27:59;;;;;;;9.48;7.32;;;10.90;86.10;;;;;;5011893;28;20108;-85
2021/11/14 01:30:29;;;;;;;10.70;7.38;;;10.90;86.10;;;;;;5010296;28;20049;-85
2021/11/14 01:32:58;;;;;;;9.98;7.63;;;10.90;86.10;;;;;;5011925;28;20116;-85
2021/11/14 01:35:26;;;;;;;10.50;7.68;;;10.90;86.10;;;;;;5011918;28;20462;-85
2021/11/14 01:37:54;;;;;;;9.63;7.22;;;10.90;86.20;;;;;;5010829;28;20042;-84
2021/11/14 01:40:29;;;;;;;11.90;8.07;;;10.90;86.10;;;;;;5011778;28;20050;-84
2021/11/14 01:42:56;;;;;;;9.27;7.75;;;10.90;86.10;;;;;;5011988;28;20723;-84
2021/11/14 01:45:24;;;;;;;11.65;7.50;;;10.90;86.20;;;;;;5011265;28;20103;-84
2021/11/14 01:47:51;;;;;;;9.93;8.50;;;10.90;86.20;;;;;;5011848;28;20061;-84
2021/11/14 01:50:19;;;;;;;10.15;7.97;;;10.90;86.10;;;;;;5011897;28;20050;-84
2021/11/14 01:52:49;;;;;;;9.95;7.55;;;10.90;86.20;;;;;;5011707;28;20054;-84
2021/11/14 01:55:21;;;;;;;9.00;7.75;;;10.90;86.20;;;;;;5011705;28;20466;-84
2021/11/14 01:57:49;;;;;;;10.80;7.75;;;10.90;86.20;;;;;;5011835;28;20104;-84
2021/11/14 02:00:27;;;;;;;11.43;8.32;;;10.90;86.20;;;;;;5011140;28;20108;-84
2021/11/14 02:02:55;;;;;;;9.10;7.75;;;10.90;86.20;;;;;;5011750;28;20053;-84
2021/11/14 02:05:24;;;;;;;10.50;8.38;;;10.90;86.20;;;;;;5011664;28;20489;-84
2021/11/14 02:07:54;;;;;;;9.77;8.25;;;10.90;86.20;;;;;;5013798;28;20099;-84
2021/11/14 02:10:24;;;;;;;11.20;8.40;;;10.90;86.20;;;;;;5015377;28;20061;-84
2021/11/14 02:12:52;;;;;;;9.98;8.30;;;10.90;86.20;;;;;;5015716;28;20489;-84
2021/11/14 02:15:19;;;;;;;9.80;7.95;;;10.90;86.20;;;;;;5015104;28;20049;-85
2021/11/14 02:17:46;;;;;;;11.65;8.52;;;10.90;86.30;;;;;;5015567;28;20096;-84
2021/11/14 02:20:15;;;;;;;10.65;8.43;;;10.90;86.30;;;;;;5015649;28;20057;-85
2021/11/14 02:22:42;;;;;;;11.00;8.35;;;10.90;86.30;;;;;;5015475;28;20045;-85
2021/11/14 02:25:13;;;;;;;10.60;8.82;;;10.90;86.30;;;;;;5017008;28;20038;-85
2021/11/14 02:27:41;;;;;;;13.23;9.57;;;10.90;86.30;;;;;;5015129;28;20054;-85
2021/11/14 02:30:11;;;;;;;10.85;9.48;;;10.90;86.30;;;;;;5015261;28;20050;-85
2021/11/14 02:32:38;;;;;;;11.93;9.95;;;10.90;86.30;;;;;;5015133;28;20104;-84
2021/11/14 02:35:26;;;;;;;12.15;9.93;;;10.90;86.30;;;;;;5015250;28;20096;-84
2021/11/14 02:37:53;;;;;;;13.27;10.35;;;10.90;86.30;;;;;;5015188;28;20050;-84
2021/11/14 02:40:21;;;;;;;12.38;10.73;;;10.90;86.30;;;;;;5014836;28;20462;-84
2021/11/14 02:42:50;;;;;;;12.88;11.10;;;10.90;86.30;;;;;;5015443;28;20057;-84
2021/11/14 02:45:21;;;;;;;12.32;10.32;;;10.90;86.30;;;;;;5014257;28;20081;-85
2021/11/14 02:47:50;;;;;;;13.43;10.05;;;10.90;86.30;;;;;;5015089;28;20046;-84
2021/11/14 02:50:18;;;;;;;15.02;12.40;;;10.80;86.30;;;;;;5015171;28;20089;-84
2021/11/14 02:52:45;;;;;;;14.00;11.95;;;10.90;86.30;;;;;;5014864;28;20042;-84
2021/11/14 02:55:15;;;;;;;16.55;11.32;;;10.90;86.30;;;;;;5014931;28;20057;-84
2021/11/14 02:57:42;;;;;;;16.25;13.18;;;10.80;86.30;;;;;;5014363;28;20096;-84
2021/11/14 03:00:13;;;;;;;13.68;11.82;;;10.90;86.30;;;;;;5014495;28;20050;-84
2021/11/14 03:02:40;;;;;;;15.90;12.45;;;10.80;86.30;;;;;;5014896;28;20053;-84
2021/11/14 03:05:11;;;;;;;15.25;12.77;;;10.90;86.30;;;;;;5014793;28;20060;-84
2021/11/14 03:07:38;;;;;;;15.35;12.75;;;10.90;86.30;;;;;;5013349;28;20049;-84
2021/11/14 03:10:08;;;;;;;16.70;12.60;;;10.90;86.30;;;;;;5014585;28;20061;-84
2021/11/14 03:12:35;;;;;;;16.88;12.90;;;10.80;86.30;;;;;;5013767;28;20057;-84
2021/11/14 03:15:04;;;;;;;14.55;12.75;;;10.80;86.40;;;;;;5014794;28;20056;-84
2021/11/14 03:17:32;;;;;;;13.73;12.05;;;10.80;86.40;;;;;;5014600;28;20050;-84
2021/11/14 03:19:59;;;;;;;15.55;12.55;;;10.80;86.40;;;;;;5013113;28;20062;-84
2021/11/14 03:22:26;;;;;;;15.05;12.75;;;10.80;86.40;;;;;;5014190;28;20453;-84
2021/11/14 03:24:53;;;;;;;16.33;12.73;;;10.80;86.40;;;;;;5014597;28;20060;-84
2021/11/14 03:27:23;;;;;;;14.88;12.45;;;10.80;86.40;;;;;;5013808;28;20057;-84
2021/11/14 03:29:50;;;;;;;15.75;13.00;;;10.80;86.40;;;;;;5014235;28;20042;-83
2021/11/14 03:32:17;;;;;;;15.48;12.27;;;10.80;86.40;;;;;;5014319;28;20050;-84
2021/11/14 03:34:44;;;;;;;16.02;11.93;;;10.80;86.40;;;;;;5014266;28;20042;-84
2021/11/14 03:37:15;;;;;;;16.05;11.95;;;10.80;86.40;;;;;;5013820;28;20045;-84
2021/11/14 03:39:42;;;;;;;14.25;11.80;;;10.90;86.40;;;;;;5013616;28;20049;-84
2021/11/14 03:42:10;;;;;;;13.85;12.35;;;10.90;86.40;;;;;;5013552;28;20499;-85
2021/11/14 03:44:38;;;;;;;19.20;11.27;;;10.80;86.40;;;;;;5013793;28;20053;-84
2021/11/14 03:47:05;;;;;;;15.02;11.82;;;10.80;86.40;;;;;;5012631;28;20100;-84
2021/11/14 03:49:32;;;;;;;15.13;11.73;;;10.80;86.40;;;;;;5013909;28;20042;-84
2021/11/14 03:51:59;;;;;;;15.80;12.02;;;10.80;86.40;;;;;;5013481;28;20053;-84
2021/11/14 03:54:26;;;;;;;15.27;11.15;;;10.80;86.30;;;;;;5013174;28;20049;-84
2021/11/14 03:56:53;;;;;;;14.15;11.18;;;10.80;86.40;;;;;;5013941;28;20050;-83
2021/11/14 03:59:20;;;;;;;14.55;11.95;;;10.80;86.40;;;;;;5013583;28;20053;-84
2021/11/14 04:01:47;;;;;;;14.48;11.13;;;10.80;86.40;;;;;;5013712;28;20046;-84
2021/11/14 04:04:14;;;;;;;13.98;10.63;;;10.70;86.40;;;;;;5013731;28;20099;-84
2021/11/14 04:06:41;;;;;;;13.95;11.15;;;10.70;86.40;;;;;;5012759;28;20049;-84
2021/11/14 04:09:08;;;;;;;15.18;10.55;;;10.80;86.40;;;;;;5013187;28;20112;-84
2021/11/14 04:11:35;;;;;;;17.58;10.90;;;10.80;86.40;;;;;;5013424;28;20050;-84
2021/11/14 04:14:02;;;;;;;14.18;11.18;;;10.80;86.40;;;;;;5013518;28;20075;-84
2021/11/14 04:16:29;;;;;;;14.18;11.18;;;10.80;86.40;;;;;;5013469;28;20419;-84
2021/11/14 04:18:56;;;;;;;13.48;11.18;;;10.70;86.40;;;;;;5013212;28;20053;-84
2021/11/14 04:21:23;;;;;;;14.02;10.90;;;10.70;86.40;;;;;;5012496;28;20042;-84
2021/11/14 04:23:50;;;;;;;13.20;10.90;;;10.70;86.40;;;;;;5013245;28;20049;-83
2021/11/14 04:26:17;;;;;;;13.82;11.30;;;10.70;86.40;;;;;;5013342;28;20054;-84
2021/11/14 04:28:45;;;;;;;13.35;10.35;;;10.70;86.50;;;;;;5013264;28;20108;-84
2021/11/14 04:31:12;;;;;;;13.23;11.07;;;10.70;86.50;;;;;;5012896;28;20045;-85
2021/11/14 04:33:39;;;;;;;14.15;11.68;;;10.70;86.50;;;;;;5012278;28;20115;-84
2021/11/14 04:36:06;;;;;;;15.10;11.20;;;10.70;86.50;;;;;;5013358;28;20051;-85
2021/11/14 04:38:33;;;;;;;13.63;11.38;;;10.70;86.50;;;;;;5013346;28;20057;-85
2021/11/14 04:41:00;;;;;;;12.85;10.30;;;10.70;86.50;;;;;;5013184;28;20049;-84
2021/11/14 04:43:27;;;;;;;14.30;9.95;;;10.70;86.50;;;;;;5013117;28;20042;-84
2021/11/14 04:45:54;;;;;;;14.50;11.45;;;10.70;86.50;;;;;;5013046;28;20465;-84
2021/11/14 04:48:23;;;;;;;14.02;10.32;;;10.70;86.50;;;;;;5012349;28;20585;-84
2021/11/14 04:50:51;;;;;;;13.40;10.88;;;10.70;86.50;;;;;;5012823;28;20046;-84
2021/11/14 04:53:18;;;;;;;14.02;9.98;;;10.70;86.50;;;;;;5012739;28;20514;-84
2021/11/14 04:55:46;;;;;;;14.68;10.35;;;10.70;86.50;;;;;;5012601;28;20472;-86
2021/11/14 04:58:14;;;;;;;16.30;10.75;;;10.70;86.50;;;;;;5012550;28;20461;-86
2021/11/14 05:00:46;;;;;;;13.80;10.20;;;10.70;86.50;;;;;;5012124;28;20059;-85
2021/11/14 05:03:14;;;;;;;13.27;9.85;;;10.70;86.60;;;;;;5011819;28;20562;-85
2021/11/14 05:05:42;;;;;;;16.40;10.50;;;10.70;86.50;;;;;;5010058;28;20388;-84
2021/11/14 05:08:10;;;;;;;13.40;10.40;;;10.70;86.60;;;;;;5012163;28;20465;-85
2021/11/14 05:10:37;;;;;;;12.57;9.90;;;10.70;86.60;;;;;;5012233;28;20038;-84
2021/11/14 05:13:05;;;;;;;13.73;10.38;;;10.70;86.60;;;;;;5012410;28;20050;-85
2021/11/14 05:15:33;;;;;;;14.18;10.27;;;10.70;86.60;;;;;;5011841;28;20521;-84
2021/11/14 05:18:00;;;;;;;14.88;10.30;;;10.70;86.60;;;;;;5013629;28;20054;-85
2021/11/14 05:20:33;;;;;;;14.35;10.10;;;10.70;86.60;;;;;;5012354;28;20624;-84
2021/11/14 05:23:00;;;;;;;14.45;9.80;;;10.70;86.60;;;;;;5012381;28;20085;-84
2021/11/14 05:25:27;;;;;;;14.43;10.13;;;10.60;86.60;;;;;;5012237;28;20046;-84
2021/11/14 05:27:56;;;;;;;13.77;9.95;;;10.70;86.60;;;;;;5012290;28;20068;-84
2021/11/14 05:30:23;;;;;;;15.38;9.90;;;10.70;86.60;;;;;;5011408;28;20407;-84
2021/11/14 05:32:50;;;;;;;13.63;9.15;;;10.70;86.60;;;;;;5011954;28;20507;-85
2021/11/14 05:35:17;;;;;;;15.65;9.25;;;10.70;86.70;;;;;;5010855;28;20494;-84
2021/11/14 05:37:44;;;;;;;15.02;9.05;;;10.70;86.70;;;;;;5012072;28;20053;-83
2021/11/14 05:40:11;;;;;;;14.25;9.73;;;10.70;86.70;;;;;;5012234;28;20041;-84
2021/11/14 05:42:38;;;;;;;17.00;10.10;;;10.70;86.70;;;;;;5010517;28;20053;-84
2021/11/14 05:45:06;;;;;;;16.27;10.43;;;10.70;86.70;;;;;;5012448;28;20061;-84
2021/11/14 05:47:33;;;;;;;17.10;11.10;;;10.70;86.70;;;;;;5011787;28;20049;-84
2021/11/14 05:50:00;;;;;;;16.17;10.10;;;10.70;86.70;;;;;;5011889;28;20619;-84
2021/11/14 05:52:27;;;;;;;15.52;10.35;;;10.70;86.70;;;;;;5010762;28;20050;-84
2021/11/14 05:54:54;;;;;;;18.30;10.32;;;10.70;86.70;;;;;;5011950;28;20053;-84
2021/11/14 05:57:21;;;;;;;19.45;10.73;;;10.70;86.70;;;;;;5011208;28;20115;-84
2021/11/14 06:00:02;;;;;;;15.20;10.15;;;10.70;86.70;;;;;;5011722;28;20101;-84
2021/11/14 06:02:39;;;;;;;17.60;11.15;;;10.70;86.70;;;;;;5011505;28;20391;-84
2021/11/14 06:05:15;;;;;;;16.52;9.57;;;10.70;86.70;;;;;;5011581;28;20057;-84
2021/11/14 06:07:44;;;;;;;15.15;10.40;;;10.70;86.70;;;;;;5011699;28;20053;-84
2021/11/14 06:10:12;;;;;;;15.43;9.95;;;10.70;86.70;;;;;;5011683;28;20050;-84
2021/11/14 06:12:39;;;;;;;16.88;9.75;;;10.70;86.70;;;;;;5009755;28;20054;-84
2021/11/14 06:15:09;;;;;;;15.05;9.52;;;10.70;86.70;;;;;;5012359;28;20517;-83
2021/11/14 06:17:37;;;;;;;17.02;10.57;;;10.70;86.70;;;;;;5011609;28;20583;-84
2021/11/14 06:20:05;;;;;;;15.05;9.52;;;10.70;86.70;;;;;;5011591;28;20046;-84
2021/11/14 06:22:32;;;;;;;17.63;11.05;;;10.70;86.70;;;;;;5011560;28;20474;-84
2021/11/14 06:24:59;;;;;;;19.48;10.32;;;10.80;86.70;;;;;;5011517;28;20064;-84
2021/11/14 06:27:29;;;;;;;15.05;10.02;;;10.70;86.80;;;;;;5006688;28;20132;-84
2021/11/14 06:29:56;;;;;;;18.08;11.00;;;10.70;86.80;;;;;;5011480;28;20058;-84
2021/11/14 06:32:23;;;;;;;17.00;11.25;;;10.80;86.80;;;;;;5011199;28;20457;-84
2021/11/14 06:34:49;;;;;;;17.55;10.80;;;10.70;86.80;;;;;;5011392;28;20057;-84
2021/11/14 06:37:16;;;;;;;17.67;10.85;;;10.80;86.80;;;;;;5011622;28;20469;-84
2021/11/14 06:39:43;;;;;;;19.05;11.57;;;10.80;86.80;;;;;;5011236;28;20056;-84
2021/11/14 06:42:10;;;;;;;20.20;11.68;;;10.70;86.80;;;;;;5011001;28;20057;-84
2021/11/14 06:44:37;;;;;;;20.48;11.55;;;10.80;86.70;;;;;;5011334;28;20054;-83
2021/11/14 06:47:04;;;;;;;19.35;10.77;;;10.80;86.70;;;;;;5011206;28;20042;-84
2021/11/14 06:49:31;;;;;;;19.50;11.80;;;10.80;86.70;;;;;;5006293;28;20542;-84
2021/11/14 06:51:58;;;;;;;16.75;10.52;;;10.80;86.70;;;;;;5011792;28;20498;-84
2021/11/14 06:54:25;;;;;;;18.00;11.43;;;10.80;86.80;;;;;;5014803;28;20058;-84
2021/11/14 06:56:52;;;;;;;22.10;12.68;;;10.80;86.70;;;;;;5016357;28;20057;-84
2021/11/14 06:59:19;;;;;;;19.08;12.18;;;10.80;86.70;;;;;;5015427;28;20065;-84
2021/11/14 07:01:47;;;;;;;19.23;12.73;;;10.80;86.70;;;;;;5015919;28;20046;-85
2021/11/14 07:04:14;;;;;;;22.90;12.50;;;10.80;86.80;;;;;;5018021;28;20045;-85
2021/11/14 07:06:41;;;;;;;18.35;11.35;;;10.80;86.70;;;;;;5014024;28;20046;-85
2021/11/14 07:09:08;;;;;;;20.35;12.32;;;10.70;86.70;;;;;;5015616;28;20069;-85
2021/11/14 07:11:37;;;;;;;18.42;12.48;;;10.80;86.70;;;;;;5015828;28;20049;-85
2021/11/14 07:14:05;;;;;;;23.77;14.02;;;10.80;86.70;;;;;;5014793;28;20465;-85
2021/11/14 07:16:33;;;;;;;20.05;12.50;;;10.80;86.70;;;;;;5014767;28;20078;-84
2021/11/14 07:19:00;;;;;;;22.73;12.02;;;10.80;86.70;;;;;;5015864;28;20055;-84
2021/11/14 07:21:27;;;;;;;26.55;13.60;;;10.80;86.70;;;;;;5014661;28;20046;-84
2021/11/14 07:23:54;;;;;;;19.65;12.20;;;10.70;86.70;;;;;;5015456;28;20046;-84
2021/11/14 07:26:21;;;;;;;31.05;14.13;;;10.80;86.80;;;;;;5015598;28;20053;-84
2021/11/14 07:28:48;;;;;;;18.92;12.18;;;10.80;86.80;;;;;;5014840;28;20046;-84
2021/11/14 07:31:15;;;;;;;17.73;12.18;;;10.80;86.80;;;;;;5015567;28;20465;-85
2021/11/14 07:33:42;;;;;;;23.60;13.93;;;10.80;86.80;;;;;;5014645;28;20511;-84
2021/11/14 07:36:09;;;;;;;18.98;13.07;;;10.80;86.80;;;;;;5014620;28;20128;-84
2021/11/14 07:38:36;;;;;;;26.02;15.38;;;10.80;86.80;;;;;;5015141;28;20065;-84
2021/11/14 07:41:03;;;;;;;22.55;14.07;;;10.80;86.80;;;;;;5014946;28;20408;-84
2021/11/14 07:43:30;;;;;;;24.50;15.10;;;10.70;86.80;;;;;;5014962;28;20399;-84
2021/11/14 07:45:57;;;;;;;23.63;15.20;;;10.80;86.80;;;;;;5015133;28;20038;-84
2021/11/14 07:48:24;;;;;;;26.95;15.10;;;10.80;86.80;;;;;;5014509;28;20103;-84
2021/11/14 07:50:54;;;;;;;24.58;15.52;;;10.80;86.80;;;;;;5014729;28;20457;-83
2021/11/14 07:53:22;;;;;;;22.13;14.32;;;10.80;86.80;;;;;;5014899;28;20514;-84
2021/11/14 07:55:53;;;;;;;23.48;15.25;;;10.80;86.80;;;;;;5015076;28;20042;-84
2021/11/14 07:58:20;;;;;;;25.83;15.82;;;10.80;86.80;;;;;;5014533;28;20053;-84
2021/11/14 08:00:48;;;;;;;27.73;17.27;;;10.80;86.80;;;;;;5014975;28;20050;-85
2021/11/14 08:03:16;;;;;;;29.55;17.30;;;10.80;86.80;;;;;;5011156;28;20050;-84
2021/11/14 08:05:43;;;;;;;29.90;17.77;;;10.80;86.80;;;;;;5013942;28;20046;-84
2021/11/14 08:08:11;;;;;;;30.27;17.98;;;10.80;86.80;;;;;;5014606;28;20084;-84
2021/11/14 08:10:38;;;;;;;31.27;17.85;;;10.80;86.80;;;;;;5014972;28;20494;-84
2021/11/14 08:13:06;;;;;;;31.30;19.33;;;10.80;86.80;;;;;;5013984;28;20421;-84
2021/11/14 08:15:35;;;;;;;29.83;18.83;;;10.80;86.80;;;;;;5014002;28;20058;-84
2021/11/14 08:18:03;;;;;;;36.55;22.48;;;10.80;86.80;;;;;;5014325;28;20049;-88
2021/11/14 08:20:33;;;;;;;38.78;22.58;;;10.80;86.80;;;;;;5014397;28;20470;-87
2021/11/14 08:23:01;;;;;;;44.85;22.50;;;10.80;86.90;;;;;;5016975;28;20052;-88
2021/11/14 08:25:29;;;;;;;30.90;18.73;;;10.80;86.90;;;;;;5014876;28;20046;-88
2021/11/14 08:27:57;;;;;;;26.73;18.27;;;10.80;86.90;;;;;;5014116;28;20126;-88
2021/11/14 08:30:24;;;;;;;33.13;19.45;;;10.90;86.90;;;;;;5014007;28;20054;-89
2021/11/14 08:32:52;;;;;;;36.00;19.70;;;10.90;86.90;;;;;;5014555;28;20108;-89
2021/11/14 08:35:20;;;;;;;30.25;18.15;;;10.90;86.90;;;;;;5014995;28;20053;-88
2021/11/14 08:37:50;;;;;;;30.10;18.40;;;10.90;86.90;;;;;;5020107;28;20045;-89
2021/11/14 08:40:17;;;;;;;33.03;20.48;;;10.90;86.90;;;;;;5014487;28;20057;-89
2021/11/14 08:42:44;;;;;;;32.72;20.00;;;10.90;86.90;;;;;;5011227;28;20049;-90
2021/11/14 08:45:12;;;;;;;35.60;20.88;;;10.90;86.90;;;;;;5015976;28;20049;-89
2021/11/14 08:47:39;;;;;;;33.67;21.00;;;10.90;86.90;;;;;;5014146;28;20058;-87
2021/11/14 08:50:09;;;;;;;52.95;28.35;;;10.90;86.90;;;;;;5013908;28;20042;-88
2021/11/14 08:52:36;;;;;;;48.72;27.00;;;10.90;86.90;;;;;;5014147;28;20045;-88
2021/11/14 08:55:04;;;;;;;37.22;23.05;;;10.90;86.90;;;;;;4998687;28;20050;-88
2021/11/14 08:57:31;;;;;;;45.55;25.98;;;11.00;87.00;;;;;;5008773;28;20446;-88
2021/11/14 08:59:57;;;;;;;42.60;24.73;;;11.00;87.00;;;;;;5014086;28;20080;-88
2021/11/14 09:02:25;;;;;;;48.05;27.33;;;11.00;87.00;;;;;;5013249;28;20108;-88
2021/11/14 09:04:52;;;;;;;36.40;22.02;;;11.00;87.00;;;;;;5014470;28;20054;-87
2021/11/14 09:07:19;;;;;;;38.28;22.70;;;11.10;87.00;;;;;;5013711;28;20046;-90
2021/11/14 09:09:46;;;;;;;35.63;22.10;;;11.00;87.00;;;;;;5014338;28;20054;-86
2021/11/14 09:12:13;;;;;;;41.28;25.38;;;11.10;87.00;;;;;;5013752;28;20050;-86
2021/11/14 09:14:40;;;;;;;38.40;23.77;;;11.10;87.00;;;;;;5013558;28;20057;-85
2021/11/14 09:17:07;;;;;;;43.20;26.60;;;11.10;87.00;;;;;;5013463;28;20050;-86
2021/11/14 09:19:34;;;;;;;59.20;33.17;;;11.10;87.00;;;;;;5013433;28;20046;-86
2021/11/14 09:22:02;;;;;;;51.95;28.60;;;11.10;87.00;;;;;;4998081;28;20418;-86
2021/11/14 09:24:29;;;;;;;45.90;28.23;;;11.20;87.00;;;;;;5008116;28;20061;-86
2021/11/14 09:26:56;;;;;;;51.17;29.63;;;11.20;87.00;;;;;;5014387;28;20435;-86
2021/11/14 09:29:23;;;;;;;54.65;31.55;;;11.20;86.90;;;;;;5013289;28;20049;-86
2021/11/14 09:31:50;;;;;;;53.10;31.60;;;11.20;86.90;;;;;;5013337;28;20096;-87
2021/11/14 09:34:17;;;;;;;51.65;31.10;;;11.20;86.90;;;;;;5014160;28;20096;-86
2021/11/14 09:36:44;;;;;;;53.45;32.58;;;11.20;86.90;;;;;;5012106;28;20045;-86
2021/11/14 09:39:12;;;;;;;55.13;33.53;;;11.20;86.90;;;;;;5011295;28;20053;-86
2021/11/14 09:41:50;;;;;;;53.85;31.25;;;11.20;86.90;;;;;;5012039;28;20493;-86
2021/11/14 09:44:19;;;;;;;59.55;34.35;;;11.30;86.90;;;;;;5010760;28;20050;-86
2021/11/14 09:46:50;;;;;;;58.10;33.28;;;11.20;86.90;;;;;;5010806;28;20099;-86
2021/11/14 09:49:20;;;;;;;54.15;33.40;;;11.20;86.90;;;;;;5011920;28;20045;-86
2021/11/14 09:51:50;;;;;;;55.72;34.72;;;11.20;86.80;;;;;;5012004;28;20050;-87
2021/11/14 09:54:18;;;;;;;55.70;32.97;;;11.30;86.90;;;;;;5009252;28;20100;-86
2021/11/14 09:56:46;;;;;;;56.33;34.13;;;11.20;86.90;;;;;;5011884;28;20096;-87
2021/11/14 09:59:14;;;;;;;58.45;35.10;;;11.30;86.80;;;;;;5011779;28;20045;-86
2021/11/14 10:01:44;;;;;;;61.63;35.50;;;11.30;86.80;;;;;;5011804;28;20050;-86
2021/11/14 10:04:12;;;;;;;61.00;35.63;;;11.30;86.80;;;;;;5011911;28;20049;-86
2021/11/14 10:06:39;;;;;;;56.85;32.88;;;11.30;86.80;;;;;;5010948;28;20088;-87
2021/11/14 10:09:07;;;;;;;59.90;35.30;;;11.30;86.80;;;;;;5011634;28;20054;-86
2021/11/14 10:11:40;;;;;;;55.25;32.75;;;11.30;86.80;;;;;;5013418;28;20054;-86
2021/11/14 10:14:08;;;;;;;54.47;33.78;;;11.40;86.80;;;;;;5010451;28;20050;-86
2021/11/14 10:16:38;;;;;;;62.03;33.90;;;11.40;86.80;;;;;;5011592;28;20042;-86
2021/11/14 10:19:12;;;;;;;50.13;32.33;;;11.40;86.80;;;;;;5011815;28;20131;-86
2021/11/14 10:21:40;;;;;;;57.07;33.67;;;11.40;86.80;;;;;;5010997;28;20041;-87
2021/11/14 10:24:10;;;;;;;52.47;32.83;;;11.40;86.80;;;;;;5011840;28;20077;-87
2021/11/14 10:26:38;;;;;;;55.65;31.65;;;11.40;86.80;;;;;;5011758;28;20502;-87
2021/11/14 10:29:10;;;;;;;51.63;31.23;;;11.40;86.80;;;;;;5012582;28;20057;-86
2021/11/14 10:31:39;;;;;;;53.33;31.15;;;11.40;86.80;;;;;;5015449;28;20485;-86
2021/11/14 10:34:06;;;;;;;64.35;31.95;;;11.40;86.70;;;;;;5015488;28;20073;-86
2021/11/14 10:36:35;;;;;;;52.58;31.85;;;11.40;86.70;;;;;;5014620;28;20046;-86
2021/11/14 10:39:10;;;;;;;55.10;32.28;;;11.40;86.70;;;;;;5014934;28;20054;-86
2021/11/14 10:41:47;;;;;;;50.00;30.13;;;11.40;86.70;;;;;;5014025;28;20097;-86
2021/11/14 10:44:17;;;;;;;50.90;29.52;;;11.40;86.70;;;;;;5015312;28;20084;-86
2021/11/14 10:46:44;;;;;;;51.28;30.75;;;11.40;86.70;;;;;;5015159;28;20049;-86
2021/11/14 10:49:11;;;;;;;44.63;28.13;;;11.40;86.70;;;;;;5015208;28;20057;-86
2021/11/14 10:51:39;;;;;;;50.38;29.45;;;11.40;86.70;;;;;;5014328;28;20042;-87
2021/11/14 10:54:09;;;;;;;47.20;29.55;;;11.50;86.70;;;;;;5015418;28;20425;-86
2021/11/14 10:56:38;;;;;;;49.40;28.45;;;11.50;86.70;;;;;;5015236;28;20050;-87
2021/11/14 10:59:07;;;;;;;49.72;28.65;;;11.50;86.70;;;;;;5014852;28;20049;-86
2021/11/14 11:01:34;;;;;;;45.65;27.88;;;11.50;86.60;;;;;;5015192;28;20042;-86
2021/11/14 11:04:07;;;;;;;48.95;27.85;;;11.50;86.60;;;;;;4999306;28;20128;-86
2021/11/14 11:06:34;;;;;;;45.10;27.67;;;11.60;86.60;;;;;;5010049;28;20053;-86
2021/11/14 11:09:04;;;;;;;52.78;28.88;;;11.60;86.50;;;;;;5016368;28;20058;-86
2021/11/14 11:11:36;;;;;;;48.35;26.65;;;11.60;86.50;;;;;;5014777;28;20050;-86
2021/11/14 11:14:03;;;;;;;45.70;26.13;;;11.60;86.40;;;;;;5014404;28;20054;-86
2021/11/14 11:16:32;;;;;;;45.50;27.08;;;11.60;86.30;;;;;;5014613;28;20541;-86
2021/11/14 11:19:01;;;;;;;49.47;27.30;;;11.60;86.30;;;;;;5014672;28;20045;-86
2021/11/14 11:21:36;;;;;;;47.35;26.35;;;11.70;86.10;;;;;;5013675;28;20092;-86
2021/11/14 11:24:15;;;;;;;42.95;25.38;;;11.60;86.10;;;;;;5014373;28;20061;-86
2021/11/14 11:27:04;;;;;;;41.30;26.30;;;11.70;86.00;;;;;;5014291;28;20046;-86
2021/11/14 11:29:34;;;;;;;44.50;26.38;;;11.70;85.90;;;;;;5014404;28;20395;-86
2021/11/14 11:32:01;;;;;;;50.80;29.13;;;11.70;85.80;;;;;;5014271;28;20045;-86
2021/11/14 11:34:29;;;;;;;42.92;26.25;;;11.70;85.80;;;;;;5013062;28;20107;-86
2021/11/14 11:36:57;;;;;;;44.05;27.67;;;11.70;85.70;;;;;;5014011;28;20041;-86
2021/11/14 11:39:25;;;;;;;50.45;29.13;;;11.70;85.70;;;;;;5012894;28;20530;-85
2021/11/14 11:41:54;;;;;;;40.53;24.95;;;11.70;85.60;;;;;;5012650;28;20506;-85
2021/11/14 11:44:28;;;;;;;40.75;25.73;;;11.70;85.50;;;;;;5014129;28;20125;-85
2021/11/14 11:47:03;;;;;;;49.00;29.90;;;11.70;85.50;;;;;;5014166;28;20065;-85
2021/11/14 11:49:36;;;;;;;47.55;28.60;;;11.80;85.50;;;;;;5013750;28;20124;-84
2021/11/14 11:52:12;;;;;;;55.42;33.33;;;11.80;85.40;;;;;;4998718;28;20049;-84
2021/11/14 11:54:42;;;;;;;49.88;31.27;;;11.80;85.40;;;;;;5010094;28;20052;-85
2021/11/14 11:57:13;;;;;;;45.75;29.52;;;11.80;85.30;;;;;;5014663;28;20092;-85
2021/11/14 11:59:59;;;;;;;43.63;28.50;;;11.80;85.30;;;;;;5012837;28;20061;-85
2021/11/14 12:02:29;;;;;;;46.40;30.35;;;11.90;85.20;;;;;;5013834;28;20124;-85
2021/11/14 12:05:04;;;;;;;47.67;30.15;;;11.90;85.20;;;;;;5013445;28;20054;-85
2021/11/14 12:07:34;;;;;;;48.45;31.10;;;11.90;85.10;;;;;;5013848;28;20501;-84
2021/11/14 12:10:13;;;;;;;47.30;31.63;;;11.90;85.10;;;;;;5013543;28;20061;-85
2021/11/14 12:12:51;;;;;;;59.58;35.25;;;11.90;85.10;;;;;;5009975;28;20050;-85
2021/11/14 12:15:27;;;;;;;50.20;32.63;;;11.90;85.00;;;;;;5012826;28;20141;-85
2021/11/14 12:18:00;;;;;;;54.13;31.77;;;11.90;85.00;;;;;;5013355;28;20116;-85
2021/11/14 12:20:34;;;;;;;50.03;33.78;;;11.90;84.90;;;;;;5013116;28;20060;-86
2021/11/14 12:23:03;;;;;;;;;;;12.00;84.90;;;;;;5013673;28;20453;-86
2021/11/14 12:25:40;;;;;;;57.20;35.95;;;12.00;84.80;;;;;;5013554;28;19925;-86
2021/11/14 12:28:13;;;;;;;51.97;34.35;;;12.00;84.80;;;;;;4998495;28;20053;-84
2021/11/14 12:33:43;;;;;;;53.20;35.13;;;12.00;84.70;;;;;;5008418;28;20565;-85
2021/11/14 12:36:37;;;;;;;52.13;36.15;;;12.10;84.70;;;;;;5014144;28;20050;-86
2021/11/14 12:39:04;;;;;;;;;;;12.10;84.60;;;;;;5013710;28;20046;-86
2021/11/14 12:41:35;;;;;;;62.63;41.13;;;12.10;84.50;;;;;;5012138;28;19921;-85